sensor_id;sensor_type;location;lat;lon;timestamp;P1;durP1;ratioP1;P2;durP2;ratioP2
4305;SDS011;2166;49.926;8.608;2024-03-23T00:53:44;23.98;;;13.80;;
4305;SDS011;2166;49.926;8.608;2024-03-23T00:56:11;21.58;;;13.82;;
4305;SDS011;2166;49.926;8.608;2024-03-23T00:58:37;20.58;;;14.65;;
4305;SDS011;2166;49.926;8.608;2024-03-23T01:01:05;17.45;;;12.63;;
4305;SDS011;2166;49.926;8.608;2024-03-23T01:03:31;23.58;;;13.55;;
4305;SDS011;2166;49.926;8.608;2024-03-23T01:05:59;18.73;;;13.40;;
4305;SDS011;2166;49.926;8.608;2024-03-23T01:08:25;21.05;;;14.77;;
4305;SDS011;2166;49.926;8.608;2024-03-23T01:10:57;20.05;;;13.70;;
4305;SDS011;2166;49.926;8.608;2024-03-23T01:13:24;18.10;;;12.30;;
4305;SDS011;2166;49.926;8.608;2024-03-23T01:15:53;19.95;;;12.38;;
4305;SDS011;2166;49.926;8.608;2024-03-23T01:18:20;18.75;;;13.57;;
4305;SDS011;2166;49.926;8.608;2024-03-23T01:20:47;18.02;;;11.60;;
4305;SDS011;2166;49.926;8.608;2024-03-23T01:23:14;19.83;;;12.63;;
4305;SDS011;2166;49.926;8.608;2024-03-23T01:25:41;18.33;;;12.10;;
4305;SDS011;2166;49.926;8.608;2024-03-23T01:28:09;20.58;;;14.00;;
4305;SDS011;2166;49.926;8.608;2024-03-23T01:30:36;22.85;;;12.13;;
4305;SDS011;2166;49.926;8.608;2024-03-23T01:33:02;20.13;;;11.82;;
4305;SDS011;2166;49.926;8.608;2024-03-23T01:35:30;19.83;;;12.10;;
4305;SDS011;2166;49.926;8.608;2024-03-23T01:37:56;15.65;;;11.43;;
4305;SDS011;2166;49.926;8.608;2024-03-23T01:40:23;19.88;;;12.93;;
4305;SDS011;2166;49.926;8.608;2024-03-23T01:42:56;15.90;;;12.32;;
4305;SDS011;2166;49.926;8.608;2024-03-23T01:45:25;16.63;;;11.07;;
4305;SDS011;2166;49.926;8.608;2024-03-23T01:47:51;15.93;;;11.50;;
4305;SDS011;2166;49.926;8.608;2024-03-23T01:50:19;18.35;;;11.95;;
4305;SDS011;2166;49.926;8.608;2024-03-23T01:52:46;21.95;;;13.40;;
4305;SDS011;2166;49.926;8.608;2024-03-23T01:55:13;21.17;;;12.68;;
4305;SDS011;2166;49.926;8.608;2024-03-23T01:57:40;17.77;;;12.57;;
4305;SDS011;2166;49.926;8.608;2024-03-23T02:00:08;20.38;;;13.80;;
4305;SDS011;2166;49.926;8.608;2024-03-23T02:02:42;19.70;;;13.07;;
4305;SDS011;2166;49.926;8.608;2024-03-23T02:05:10;20.33;;;13.35;;
4305;SDS011;2166;49.926;8.608;2024-03-23T02:07:37;18.67;;;12.85;;
4305;SDS011;2166;49.926;8.608;2024-03-23T02:10:06;18.35;;;12.93;;
4305;SDS011;2166;49.926;8.608;2024-03-23T02:12:33;20.08;;;13.57;;
4305;SDS011;2166;49.926;8.608;2024-03-23T02:15:01;20.08;;;13.40;;
4305;SDS011;2166;49.926;8.608;2024-03-23T02:17:27;20.52;;;14.30;;
4305;SDS011;2166;49.926;8.608;2024-03-23T02:19:57;21.48;;;14.05;;
4305;SDS011;2166;49.926;8.608;2024-03-23T02:22:23;25.73;;;14.75;;
4305;SDS011;2166;49.926;8.608;2024-03-23T02:24:52;26.85;;;15.48;;
4305;SDS011;2166;49.926;8.608;2024-03-23T02:27:18;19.50;;;14.57;;
4305;SDS011;2166;49.926;8.608;2024-03-23T02:29:46;21.77;;;14.50;;
4305;SDS011;2166;49.926;8.608;2024-03-23T02:32:12;20.25;;;13.57;;
4305;SDS011;2166;49.926;8.608;2024-03-23T02:34:39;21.15;;;14.35;;
4305;SDS011;2166;49.926;8.608;2024-03-23T02:37:10;26.27;;;14.15;;
4305;SDS011;2166;49.926;8.608;2024-03-23T02:39:37;19.17;;;14.18;;
4305;SDS011;2166;49.926;8.608;2024-03-23T02:42:05;20.40;;;13.55;;
4305;SDS011;2166;49.926;8.608;2024-03-23T02:44:33;26.77;;;13.40;;
4305;SDS011;2166;49.926;8.608;2024-03-23T02:46:59;20.08;;;13.43;;
4305;SDS011;2166;49.926;8.608;2024-03-23T02:49:26;17.98;;;14.30;;
4305;SDS011;2166;49.926;8.608;2024-03-23T02:51:53;22.45;;;14.80;;
4305;SDS011;2166;49.926;8.608;2024-03-23T02:54:20;22.38;;;14.90;;
4305;SDS011;2166;49.926;8.608;2024-03-23T02:56:46;23.95;;;15.10;;
4305;SDS011;2166;49.926;8.608;2024-03-23T02:59:15;25.20;;;15.18;;
4305;SDS011;2166;49.926;8.608;2024-03-23T03:01:41;22.77;;;13.63;;
4305;SDS011;2166;49.926;8.608;2024-03-23T03:04:09;20.60;;;13.57;;
4305;SDS011;2166;49.926;8.608;2024-03-23T03:06:35;21.27;;;14.70;;
4305;SDS011;2166;49.926;8.608;2024-03-23T03:09:02;21.42;;;14.30;;
4305;SDS011;2166;49.926;8.608;2024-03-23T03:11:30;19.92;;;14.45;;
4305;SDS011;2166;49.926;8.608;2024-03-23T03:13:57;19.67;;;14.55;;
4305;SDS011;2166;49.926;8.608;2024-03-23T03:16:27;24.80;;;15.40;;
4305;SDS011;2166;49.926;8.608;2024-03-23T03:18:54;24.77;;;16.00;;
4305;SDS011;2166;49.926;8.608;2024-03-23T03:21:21;23.70;;;15.80;;
4305;SDS011;2166;49.926;8.608;2024-03-23T03:23:48;25.42;;;17.23;;
4305;SDS011;2166;49.926;8.608;2024-03-23T03:26:17;24.35;;;16.38;;
4305;SDS011;2166;49.926;8.608;2024-03-23T03:28:44;28.58;;;16.60;;
4305;SDS011;2166;49.926;8.608;2024-03-23T03:31:14;26.92;;;15.25;;
4305;SDS011;2166;49.926;8.608;2024-03-23T03:33:43;22.67;;;14.23;;
4305;SDS011;2166;49.926;8.608;2024-03-23T03:36:10;24.25;;;14.52;;
4305;SDS011;2166;49.926;8.608;2024-03-23T03:38:37;24.02;;;14.60;;
4305;SDS011;2166;49.926;8.608;2024-03-23T03:41:04;23.15;;;14.90;;
4305;SDS011;2166;49.926;8.608;2024-03-23T03:43:32;23.23;;;15.65;;
4305;SDS011;2166;49.926;8.608;2024-03-23T03:45:59;23.25;;;14.60;;
4305;SDS011;2166;49.926;8.608;2024-03-23T03:48:28;23.10;;;15.32;;
4305;SDS011;2166;49.926;8.608;2024-03-23T03:50:56;22.92;;;15.05;;
4305;SDS011;2166;49.926;8.608;2024-03-23T03:53:23;27.58;;;15.63;;
4305;SDS011;2166;49.926;8.608;2024-03-23T03:55:49;21.38;;;13.68;;
4305;SDS011;2166;49.926;8.608;2024-03-23T03:58:17;21.85;;;14.80;;
4305;SDS011;2166;49.926;8.608;2024-03-23T04:00:43;24.65;;;15.88;;
4305;SDS011;2166;49.926;8.608;2024-03-23T04:03:10;20.08;;;15.18;;
4305;SDS011;2166;49.926;8.608;2024-03-23T04:05:36;21.92;;;14.05;;
4305;SDS011;2166;49.926;8.608;2024-03-23T04:08:06;24.67;;;16.67;;
4305;SDS011;2166;49.926;8.608;2024-03-23T04:10:33;25.05;;;15.75;;
4305;SDS011;2166;49.926;8.608;2024-03-23T04:13:01;29.73;;;15.70;;
4305;SDS011;2166;49.926;8.608;2024-03-23T04:15:30;32.17;;;17.27;;
4305;SDS011;2166;49.926;8.608;2024-03-23T04:17:57;26.58;;;15.30;;
4305;SDS011;2166;49.926;8.608;2024-03-23T04:20:23;26.25;;;16.25;;
4305;SDS011;2166;49.926;8.608;2024-03-23T04:22:50;21.88;;;15.50;;
4305;SDS011;2166;49.926;8.608;2024-03-23T04:25:18;25.25;;;15.32;;
4305;SDS011;2166;49.926;8.608;2024-03-23T04:27:46;27.70;;;15.63;;
4305;SDS011;2166;49.926;8.608;2024-03-23T04:30:12;29.10;;;17.23;;
4305;SDS011;2166;49.926;8.608;2024-03-23T04:32:41;32.83;;;17.10;;
4305;SDS011;2166;49.926;8.608;2024-03-23T04:35:07;23.88;;;13.25;;
4305;SDS011;2166;49.926;8.608;2024-03-23T04:37:35;26.20;;;14.85;;
4305;SDS011;2166;49.926;8.608;2024-03-23T04:40:03;20.50;;;11.43;;
4305;SDS011;2166;49.926;8.608;2024-03-23T04:42:34;17.75;;;10.27;;
4305;SDS011;2166;49.926;8.608;2024-03-23T04:45:01;12.85;;;6.82;;
4305;SDS011;2166;49.926;8.608;2024-03-23T04:47:29;8.90;;;5.57;;
4305;SDS011;2166;49.926;8.608;2024-03-23T04:49:56;8.98;;;5.03;;
4305;SDS011;2166;49.926;8.608;2024-03-23T04:52:23;13.73;;;5.65;;
4305;SDS011;2166;49.926;8.608;2024-03-23T04:54:50;5.70;;;3.60;;
4305;SDS011;2166;49.926;8.608;2024-03-23T04:57:17;10.18;;;5.05;;
4305;SDS011;2166;49.926;8.608;2024-03-23T04:59:47;7.75;;;4.47;;
4305;SDS011;2166;49.926;8.608;2024-03-23T05:02:14;6.38;;;3.47;;
4305;SDS011;2166;49.926;8.608;2024-03-23T05:04:41;8.20;;;4.10;;
4305;SDS011;2166;49.926;8.608;2024-03-23T05:07:09;9.65;;;4.72;;
4305;SDS011;2166;49.926;8.608;2024-03-23T05:09:35;3.80;;;2.35;;
4305;SDS011;2166;49.926;8.608;2024-03-23T05:12:03;5.63;;;3.50;;
4305;SDS011;2166;49.926;8.608;2024-03-23T05:14:29;6.15;;;3.60;;
4305;SDS011;2166;49.926;8.608;2024-03-23T05:16:58;4.05;;;2.45;;
4305;SDS011;2166;49.926;8.608;2024-03-23T05:19:24;3.03;;;1.98;;
4305;SDS011;2166;49.926;8.608;2024-03-23T05:21:52;4.07;;;2.40;;
4305;SDS011;2166;49.926;8.608;2024-03-23T05:24:18;2.72;;;1.58;;
4305;SDS011;2166;49.926;8.608;2024-03-23T05:26:45;5.22;;;2.58;;
4305;SDS011;2166;49.926;8.608;2024-03-23T05:29:12;2.65;;;1.67;;
4305;SDS011;2166;49.926;8.608;2024-03-23T05:31:39;2.20;;;1.40;;
4305;SDS011;2166;49.926;8.608;2024-03-23T05:34:09;3.88;;;2.08;;
4305;SDS011;2166;49.926;8.608;2024-03-23T05:36:36;5.38;;;3.05;;
4305;SDS011;2166;49.926;8.608;2024-03-23T05:39:03;4.18;;;2.78;;
4305;SDS011;2166;49.926;8.608;2024-03-23T05:41:30;3.65;;;2.38;;
4305;SDS011;2166;49.926;8.608;2024-03-23T05:43:56;3.40;;;2.17;;
4305;SDS011;2166;49.926;8.608;2024-03-23T05:46:23;4.28;;;3.13;;
4305;SDS011;2166;49.926;8.608;2024-03-23T05:48:50;7.28;;;4.40;;
4305;SDS011;2166;49.926;8.608;2024-03-23T05:51:26;10.20;;;5.72;;
4305;SDS011;2166;49.926;8.608;2024-03-23T05:53:53;18.65;;;10.50;;
4305;SDS011;2166;49.926;8.608;2024-03-23T05:56:20;7.20;;;5.07;;
4305;SDS011;2166;49.926;8.608;2024-03-23T05:58:46;3.55;;;2.75;;
4305;SDS011;2166;49.926;8.608;2024-03-23T06:01:14;3.90;;;3.38;;
4305;SDS011;2166;49.926;8.608;2024-03-23T06:03:40;6.65;;;4.15;;
4305;SDS011;2166;49.926;8.608;2024-03-23T06:06:09;6.15;;;3.67;;
4305;SDS011;2166;49.926;8.608;2024-03-23T06:08:38;4.43;;;2.45;;
4305;SDS011;2166;49.926;8.608;2024-03-23T06:11:06;4.45;;;2.97;;
4305;SDS011;2166;49.926;8.608;2024-03-23T06:13:32;7.82;;;2.92;;
4305;SDS011;2166;49.926;8.608;2024-03-23T06:16:00;3.60;;;2.47;;
4305;SDS011;2166;49.926;8.608;2024-03-23T06:18:26;3.90;;;1.60;;
4305;SDS011;2166;49.926;8.608;2024-03-23T06:20:54;2.38;;;1.60;;
4305;SDS011;2166;49.926;8.608;2024-03-23T06:23:20;1.08;;;0.90;;
4305;SDS011;2166;49.926;8.608;2024-03-23T06:25:49;3.33;;;1.50;;
4305;SDS011;2166;49.926;8.608;2024-03-23T06:28:15;1.38;;;0.90;;
4305;SDS011;2166;49.926;8.608;2024-03-23T06:30:43;2.80;;;1.73;;
4305;SDS011;2166;49.926;8.608;2024-03-23T06:33:10;1.77;;;1.08;;
4305;SDS011;2166;49.926;8.608;2024-03-23T06:35:37;3.05;;;1.48;;
4305;SDS011;2166;49.926;8.608;2024-03-23T06:38:03;1.30;;;1.02;;
4305;SDS011;2166;49.926;8.608;2024-03-23T06:40:31;2.10;;;1.40;;
4305;SDS011;2166;49.926;8.608;2024-03-23T06:42:59;1.65;;;1.13;;
4305;SDS011;2166;49.926;8.608;2024-03-23T06:45:26;1.15;;;0.80;;
4305;SDS011;2166;49.926;8.608;2024-03-23T06:47:52;2.88;;;1.10;;
4305;SDS011;2166;49.926;8.608;2024-03-23T06:50:21;1.10;;;0.80;;
4305;SDS011;2166;49.926;8.608;2024-03-23T06:52:49;2.10;;;0.90;;
4305;SDS011;2166;49.926;8.608;2024-03-23T06:55:16;1.13;;;0.80;;
4305;SDS011;2166;49.926;8.608;2024-03-23T06:57:43;2.15;;;1.38;;
4305;SDS011;2166;49.926;8.608;2024-03-23T07:00:12;1.63;;;1.08;;
4305;SDS011;2166;49.926;8.608;2024-03-23T07:02:40;2.08;;;0.90;;
4305;SDS011;2166;49.926;8.608;2024-03-23T07:05:09;4.90;;;1.65;;
4305;SDS011;2166;49.926;8.608;2024-03-23T07:07:36;3.28;;;0.90;;
4305;SDS011;2166;49.926;8.608;2024-03-23T07:10:05;4.75;;;1.80;;
4305;SDS011;2166;49.926;8.608;2024-03-23T07:12:32;2.78;;;1.13;;
4305;SDS011;2166;49.926;8.608;2024-03-23T07:14:59;1.80;;;0.85;;
4305;SDS011;2166;49.926;8.608;2024-03-23T07:17:27;4.63;;;1.45;;
4305;SDS011;2166;49.926;8.608;2024-03-23T07:19:54;3.97;;;1.60;;
4305;SDS011;2166;49.926;8.608;2024-03-23T07:22:21;4.43;;;1.58;;
4305;SDS011;2166;49.926;8.608;2024-03-23T07:24:49;6.30;;;1.58;;
4305;SDS011;2166;49.926;8.608;2024-03-23T07:27:16;7.50;;;1.20;;
4305;SDS011;2166;49.926;8.608;2024-03-23T07:29:43;3.28;;;1.15;;
4305;SDS011;2166;49.926;8.608;2024-03-23T07:32:09;3.40;;;1.38;;
4305;SDS011;2166;49.926;8.608;2024-03-23T07:34:38;2.88;;;1.20;;
4305;SDS011;2166;49.926;8.608;2024-03-23T07:37:04;4.13;;;1.27;;
4305;SDS011;2166;49.926;8.608;2024-03-23T07:39:32;6.40;;;1.27;;
4305;SDS011;2166;49.926;8.608;2024-03-23T07:41:59;4.25;;;1.42;;
4305;SDS011;2166;49.926;8.608;2024-03-23T07:44:26;4.47;;;1.15;;
4305;SDS011;2166;49.926;8.608;2024-03-23T07:46:52;5.68;;;1.38;;
4305;SDS011;2166;49.926;8.608;2024-03-23T07:49:20;6.60;;;1.35;;
4305;SDS011;2166;49.926;8.608;2024-03-23T07:51:48;3.40;;;1.52;;
4305;SDS011;2166;49.926;8.608;2024-03-23T07:54:14;6.60;;;2.33;;
4305;SDS011;2166;49.926;8.608;2024-03-23T07:56:42;8.70;;;3.22;;
4305;SDS011;2166;49.926;8.608;2024-03-23T07:59:09;6.50;;;1.95;;
4305;SDS011;2166;49.926;8.608;2024-03-23T08:01:36;4.28;;;1.65;;
4305;SDS011;2166;49.926;8.608;2024-03-23T08:04:02;8.27;;;2.40;;
4305;SDS011;2166;49.926;8.608;2024-03-23T08:06:30;6.53;;;1.80;;
4305;SDS011;2166;49.926;8.608;2024-03-23T08:08:57;9.02;;;3.65;;
4305;SDS011;2166;49.926;8.608;2024-03-23T08:11:28;4.93;;;2.40;;
4305;SDS011;2166;49.926;8.608;2024-03-23T08:13:56;4.80;;;2.60;;
4305;SDS011;2166;49.926;8.608;2024-03-23T08:16:23;6.35;;;2.88;;
4305;SDS011;2166;49.926;8.608;2024-03-23T08:18:50;9.55;;;3.33;;
4305;SDS011;2166;49.926;8.608;2024-03-23T08:21:18;8.15;;;2.50;;
4305;SDS011;2166;49.926;8.608;2024-03-23T08:23:44;9.60;;;3.08;;
4305;SDS011;2166;49.926;8.608;2024-03-23T08:26:14;4.85;;;2.50;;
4305;SDS011;2166;49.926;8.608;2024-03-23T08:28:41;5.07;;;2.00;;
4305;SDS011;2166;49.926;8.608;2024-03-23T08:31:09;7.78;;;2.33;;
4305;SDS011;2166;49.926;8.608;2024-03-23T08:33:36;4.30;;;2.08;;
4305;SDS011;2166;49.926;8.608;2024-03-23T08:36:05;3.83;;;2.30;;
4305;SDS011;2166;49.926;8.608;2024-03-23T08:38:32;6.13;;;2.30;;
4305;SDS011;2166;49.926;8.608;2024-03-23T08:41:00;5.03;;;1.85;;
4305;SDS011;2166;49.926;8.608;2024-03-23T08:43:29;7.93;;;2.65;;
4305;SDS011;2166;49.926;8.608;2024-03-23T08:46:03;4.65;;;1.77;;
4305;SDS011;2166;49.926;8.608;2024-03-23T08:48:30;6.18;;;2.08;;
4305;SDS011;2166;49.926;8.608;2024-03-23T08:50:59;5.10;;;1.80;;
4305;SDS011;2166;49.926;8.608;2024-03-23T08:53:27;7.55;;;2.20;;
4305;SDS011;2166;49.926;8.608;2024-03-23T08:55:55;5.32;;;2.22;;
4305;SDS011;2166;49.926;8.608;2024-03-23T08:58:23;4.78;;;1.23;;
4305;SDS011;2166;49.926;8.608;2024-03-23T09:00:52;7.00;;;2.10;;
4305;SDS011;2166;49.926;8.608;2024-03-23T09:03:22;7.90;;;2.28;;
4305;SDS011;2166;49.926;8.608;2024-03-23T09:05:49;8.45;;;2.75;;
4305;SDS011;2166;49.926;8.608;2024-03-23T09:08:15;5.22;;;1.65;;
4305;SDS011;2166;49.926;8.608;2024-03-23T09:10:42;12.18;;;2.72;;
4305;SDS011;2166;49.926;8.608;2024-03-23T09:13:09;6.38;;;2.15;;
4305;SDS011;2166;49.926;8.608;2024-03-23T09:15:45;8.55;;;2.90;;
4305;SDS011;2166;49.926;8.608;2024-03-23T09:18:13;8.10;;;2.40;;
4305;SDS011;2166;49.926;8.608;2024-03-23T09:20:40;6.15;;;2.13;;
4305;SDS011;2166;49.926;8.608;2024-03-23T09:23:07;6.28;;;1.92;;
4305;SDS011;2166;49.926;8.608;2024-03-23T09:25:36;6.50;;;2.03;;
4305;SDS011;2166;49.926;8.608;2024-03-23T09:28:03;8.18;;;2.50;;
4305;SDS011;2166;49.926;8.608;2024-03-23T09:30:32;8.77;;;2.78;;
4305;SDS011;2166;49.926;8.608;2024-03-23T09:32:59;6.53;;;3.13;;
4305;SDS011;2166;49.926;8.608;2024-03-23T09:35:28;8.05;;;2.80;;
4305;SDS011;2166;49.926;8.608;2024-03-23T09:37:54;7.30;;;2.30;;
4305;SDS011;2166;49.926;8.608;2024-03-23T09:40:22;6.90;;;2.47;;
4305;SDS011;2166;49.926;8.608;2024-03-23T09:42:49;9.68;;;2.38;;
4305;SDS011;2166;49.926;8.608;2024-03-23T09:45:19;7.38;;;2.65;;
4305;SDS011;2166;49.926;8.608;2024-03-23T09:47:47;5.40;;;2.05;;
4305;SDS011;2166;49.926;8.608;2024-03-23T09:50:16;8.10;;;2.63;;
4305;SDS011;2166;49.926;8.608;2024-03-23T09:52:44;13.73;;;2.92;;
4305;SDS011;2166;49.926;8.608;2024-03-23T09:55:12;6.47;;;1.90;;
4305;SDS011;2166;49.926;8.608;2024-03-23T09:57:39;4.95;;;1.67;;
4305;SDS011;2166;49.926;8.608;2024-03-23T10:00:07;7.00;;;2.90;;
4305;SDS011;2166;49.926;8.608;2024-03-23T10:02:34;11.45;;;2.90;;
4305;SDS011;2166;49.926;8.608;2024-03-23T10:05:02;5.95;;;2.35;;
4305;SDS011;2166;49.926;8.608;2024-03-23T10:07:29;6.13;;;1.90;;
4305;SDS011;2166;49.926;8.608;2024-03-23T10:09:58;7.93;;;1.80;;
4305;SDS011;2166;49.926;8.608;2024-03-23T10:12:39;6.00;;;1.98;;
4305;SDS011;2166;49.926;8.608;2024-03-23T10:17:44;5.95;;;1.50;;
4305;SDS011;2166;49.926;8.608;2024-03-23T10:20:11;7.88;;;1.30;;
4305;SDS011;2166;49.926;8.608;2024-03-23T10:22:38;10.57;;;1.98;;
4305;SDS011;2166;49.926;8.608;2024-03-23T10:25:09;5.88;;;2.45;;
4305;SDS011;2166;49.926;8.608;2024-03-23T10:27:39;7.93;;;2.20;;
4305;SDS011;2166;49.926;8.608;2024-03-23T10:30:10;10.02;;;2.00;;
4305;SDS011;2166;49.926;8.608;2024-03-23T10:32:40;5.38;;;1.65;;
4305;SDS011;2166;49.926;8.608;2024-03-23T10:35:18;6.97;;;1.50;;
4305;SDS011;2166;49.926;8.608;2024-03-23T10:37:47;5.32;;;1.35;;
4305;SDS011;2166;49.926;8.608;2024-03-23T10:40:16;5.75;;;1.63;;
4305;SDS011;2166;49.926;8.608;2024-03-23T10:42:44;17.73;;;5.95;;
4305;SDS011;2166;49.926;8.608;2024-03-23T10:45:10;7.25;;;2.28;;
4305;SDS011;2166;49.926;8.608;2024-03-23T10:47:38;13.45;;;3.95;;
4305;SDS011;2166;49.926;8.608;2024-03-23T10:50:04;8.57;;;3.13;;
4305;SDS011;2166;49.926;8.608;2024-03-23T10:52:32;5.22;;;1.58;;
4305;SDS011;2166;49.926;8.608;2024-03-23T10:54:59;5.10;;;1.63;;
4305;SDS011;2166;49.926;8.608;2024-03-23T10:57:31;4.45;;;1.55;;
4305;SDS011;2166;49.926;8.608;2024-03-23T11:00:03;3.22;;;1.65;;
4305;SDS011;2166;49.926;8.608;2024-03-23T11:02:32;6.20;;;1.25;;
4305;SDS011;2166;49.926;8.608;2024-03-23T11:04:58;7.10;;;1.63;;
4305;SDS011;2166;49.926;8.608;2024-03-23T11:07:29;8.85;;;1.45;;
4305;SDS011;2166;49.926;8.608;2024-03-23T11:09:56;5.28;;;1.38;;
4305;SDS011;2166;49.926;8.608;2024-03-23T11:12:28;3.90;;;1.50;;
4305;SDS011;2166;49.926;8.608;2024-03-23T11:15:00;8.55;;;1.63;;
4305;SDS011;2166;49.926;8.608;2024-03-23T11:17:28;8.07;;;1.95;;
4305;SDS011;2166;49.926;8.608;2024-03-23T11:19:56;5.13;;;1.50;;
4305;SDS011;2166;49.926;8.608;2024-03-23T11:22:40;8.88;;;2.20;;
4305;SDS011;2166;49.926;8.608;2024-03-23T11:25:17;10.25;;;4.05;;
4305;SDS011;2166;49.926;8.608;2024-03-23T11:27:47;8.32;;;2.00;;
4305;SDS011;2166;49.926;8.608;2024-03-23T11:30:16;19.23;;;8.25;;
4305;SDS011;2166;49.926;8.608;2024-03-23T11:32:44;3.63;;;2.65;;
4305;SDS011;2166;49.926;8.608;2024-03-23T11:35:24;5.45;;;2.42;;
4305;SDS011;2166;49.926;8.608;2024-03-23T11:38:05;4.60;;;1.98;;
4305;SDS011;2166;49.926;8.608;2024-03-23T11:40:32;7.80;;;2.00;;
4305;SDS011;2166;49.926;8.608;2024-03-23T11:43:02;5.85;;;2.35;;
4305;SDS011;2166;49.926;8.608;2024-03-23T11:45:33;4.10;;;1.77;;
4305;SDS011;2166;49.926;8.608;2024-03-23T11:48:06;6.40;;;1.88;;
4305;SDS011;2166;49.926;8.608;2024-03-23T11:50:34;3.30;;;1.13;;
4305;SDS011;2166;49.926;8.608;2024-03-23T11:53:14;2.78;;;1.25;;
4305;SDS011;2166;49.926;8.608;2024-03-23T11:55:48;2.38;;;0.80;;
4305;SDS011;2166;49.926;8.608;2024-03-23T11:58:17;0.65;;;0.63;;
4305;SDS011;2166;49.926;8.608;2024-03-23T12:00:49;2.92;;;0.68;;
4305;SDS011;2166;49.926;8.608;2024-03-23T12:03:18;0.90;;;0.60;;
4305;SDS011;2166;49.926;8.608;2024-03-23T12:05:50;0.82;;;0.43;;
4305;SDS011;2166;49.926;8.608;2024-03-23T12:08:20;3.15;;;0.90;;
4305;SDS011;2166;49.926;8.608;2024-03-23T12:10:49;1.45;;;0.70;;
4305;SDS011;2166;49.926;8.608;2024-03-23T12:13:21;1.23;;;0.70;;
4305;SDS011;2166;49.926;8.608;2024-03-23T12:15:49;3.00;;;0.93;;
4305;SDS011;2166;49.926;8.608;2024-03-23T12:18:16;2.88;;;0.98;;
4305;SDS011;2166;49.926;8.608;2024-03-23T12:20:44;3.85;;;1.00;;
4305;SDS011;2166;49.926;8.608;2024-03-23T12:23:11;2.55;;;1.17;;
4305;SDS011;2166;49.926;8.608;2024-03-23T12:25:42;4.30;;;1.00;;
4305;SDS011;2166;49.926;8.608;2024-03-23T12:28:08;3.05;;;1.30;;
4305;SDS011;2166;49.926;8.608;2024-03-23T12:30:38;4.65;;;1.15;;
4305;SDS011;2166;49.926;8.608;2024-03-23T12:33:05;4.70;;;1.13;;
4305;SDS011;2166;49.926;8.608;2024-03-23T12:35:34;5.78;;;1.52;;
4305;SDS011;2166;49.926;8.608;2024-03-23T12:38:01;5.05;;;1.23;;
4305;SDS011;2166;49.926;8.608;2024-03-23T12:40:28;6.97;;;1.30;;
4305;SDS011;2166;49.926;8.608;2024-03-23T12:42:54;5.55;;;1.42;;
4305;SDS011;2166;49.926;8.608;2024-03-23T12:45:22;6.63;;;1.40;;
4305;SDS011;2166;49.926;8.608;2024-03-23T12:47:50;4.68;;;1.98;;
4305;SDS011;2166;49.926;8.608;2024-03-23T12:50:19;6.53;;;2.25;;
4305;SDS011;2166;49.926;8.608;2024-03-23T12:52:45;6.55;;;1.65;;
4305;SDS011;2166;49.926;8.608;2024-03-23T12:55:13;9.82;;;1.83;;
4305;SDS011;2166;49.926;8.608;2024-03-23T12:57:39;4.60;;;1.10;;
4305;SDS011;2166;49.926;8.608;2024-03-23T13:00:07;2.55;;;1.40;;
4305;SDS011;2166;49.926;8.608;2024-03-23T13:02:37;3.95;;;2.22;;
4305;SDS011;2166;49.926;8.608;2024-03-23T13:05:06;2.35;;;1.38;;
4305;SDS011;2166;49.926;8.608;2024-03-23T13:07:34;4.85;;;1.85;;
4305;SDS011;2166;49.926;8.608;2024-03-23T13:10:03;6.90;;;2.25;;
4305;SDS011;2166;49.926;8.608;2024-03-23T13:12:30;9.02;;;1.50;;
4305;SDS011;2166;49.926;8.608;2024-03-23T13:14:58;1.65;;;0.80;;
4305;SDS011;2166;49.926;8.608;2024-03-23T13:17:25;3.55;;;1.85;;
4305;SDS011;2166;49.926;8.608;2024-03-23T13:19:53;1.80;;;0.73;;
4305;SDS011;2166;49.926;8.608;2024-03-23T13:22:22;6.68;;;2.30;;
4305;SDS011;2166;49.926;8.608;2024-03-23T13:24:50;4.18;;;2.03;;
4305;SDS011;2166;49.926;8.608;2024-03-23T13:27:16;5.07;;;1.80;;
4305;SDS011;2166;49.926;8.608;2024-03-23T13:29:44;10.50;;;2.95;;
4305;SDS011;2166;49.926;8.608;2024-03-23T13:32:12;4.40;;;2.90;;
4305;SDS011;2166;49.926;8.608;2024-03-23T13:34:39;10.10;;;3.00;;
4305;SDS011;2166;49.926;8.608;2024-03-23T13:37:08;6.90;;;2.13;;
4305;SDS011;2166;49.926;8.608;2024-03-23T13:39:38;3.95;;;1.75;;
4305;SDS011;2166;49.926;8.608;2024-03-23T13:42:04;3.95;;;1.88;;
4305;SDS011;2166;49.926;8.608;2024-03-23T13:44:34;10.43;;;2.28;;
4305;SDS011;2166;49.926;8.608;2024-03-23T13:47:02;6.35;;;1.50;;
4305;SDS011;2166;49.926;8.608;2024-03-23T13:49:30;5.47;;;1.73;;
4305;SDS011;2166;49.926;8.608;2024-03-23T13:51:58;7.68;;;1.48;;
4305;SDS011;2166;49.926;8.608;2024-03-23T13:54:25;4.72;;;1.85;;
4305;SDS011;2166;49.926;8.608;2024-03-23T13:56:54;6.07;;;1.67;;
4305;SDS011;2166;49.926;8.608;2024-03-23T13:59:22;3.78;;;1.90;;
4305;SDS011;2166;49.926;8.608;2024-03-23T14:01:50;6.38;;;1.92;;
4305;SDS011;2166;49.926;8.608;2024-03-23T14:04:18;4.43;;;1.83;;
4305;SDS011;2166;49.926;8.608;2024-03-23T14:06:45;7.13;;;2.08;;
4305;SDS011;2166;49.926;8.608;2024-03-23T14:09:13;6.97;;;2.08;;
4305;SDS011;2166;49.926;8.608;2024-03-23T14:11:40;6.05;;;1.85;;
4305;SDS011;2166;49.926;8.608;2024-03-23T14:14:10;4.40;;;1.60;;
4305;SDS011;2166;49.926;8.608;2024-03-23T14:16:36;2.00;;;1.48;;
4305;SDS011;2166;49.926;8.608;2024-03-23T14:19:04;3.05;;;1.10;;
4305;SDS011;2166;49.926;8.608;2024-03-23T14:21:35;3.72;;;1.50;;
4305;SDS011;2166;49.926;8.608;2024-03-23T14:24:02;7.07;;;1.63;;
4305;SDS011;2166;49.926;8.608;2024-03-23T14:26:32;5.10;;;1.23;;
4305;SDS011;2166;49.926;8.608;2024-03-23T14:28:59;2.72;;;0.90;;
4305;SDS011;2166;49.926;8.608;2024-03-23T14:31:27;8.30;;;1.25;;
4305;SDS011;2166;49.926;8.608;2024-03-23T14:33:54;2.97;;;1.60;;
4305;SDS011;2166;49.926;8.608;2024-03-23T14:36:20;1.90;;;1.00;;
4305;SDS011;2166;49.926;8.608;2024-03-23T14:38:48;5.68;;;1.10;;
4305;SDS011;2166;49.926;8.608;2024-03-23T14:41:14;4.00;;;1.20;;
4305;SDS011;2166;49.926;8.608;2024-03-23T14:43:41;4.75;;;1.02;;
4305;SDS011;2166;49.926;8.608;2024-03-23T14:46:09;7.07;;;1.67;;
4305;SDS011;2166;49.926;8.608;2024-03-23T14:48:39;1.25;;;0.65;;
4305;SDS011;2166;49.926;8.608;2024-03-23T14:51:07;2.30;;;0.50;;
4305;SDS011;2166;49.926;8.608;2024-03-23T14:53:35;2.03;;;0.60;;
4305;SDS011;2166;49.926;8.608;2024-03-23T14:56:02;1.20;;;0.40;;
4305;SDS011;2166;49.926;8.608;2024-03-23T14:58:32;2.70;;;0.70;;
4305;SDS011;2166;49.926;8.608;2024-03-23T15:01:01;1.23;;;0.50;;
4305;SDS011;2166;49.926;8.608;2024-03-23T15:03:29;3.38;;;0.38;;
4305;SDS011;2166;49.926;8.608;2024-03-23T15:05:57;1.80;;;0.52;;
4305;SDS011;2166;49.926;8.608;2024-03-23T15:08:25;2.30;;;0.60;;
4305;SDS011;2166;49.926;8.608;2024-03-23T15:10:53;2.67;;;0.63;;
4305;SDS011;2166;49.926;8.608;2024-03-23T15:13:25;3.50;;;1.25;;
4305;SDS011;2166;49.926;8.608;2024-03-23T15:15:51;2.78;;;0.73;;
4305;SDS011;2166;49.926;8.608;2024-03-23T15:18:19;7.22;;;2.13;;
4305;SDS011;2166;49.926;8.608;2024-03-23T15:20:51;0.55;;;0.38;;
4305;SDS011;2166;49.926;8.608;2024-03-23T15:23:21;1.65;;;0.60;;
4305;SDS011;2166;49.926;8.608;2024-03-23T15:25:53;1.52;;;0.40;;
4305;SDS011;2166;49.926;8.608;2024-03-23T15:28:21;4.50;;;0.90;;
4305;SDS011;2166;49.926;8.608;2024-03-23T15:30:47;2.28;;;0.57;;
4305;SDS011;2166;49.926;8.608;2024-03-23T15:33:15;0.57;;;0.47;;
4305;SDS011;2166;49.926;8.608;2024-03-23T15:35:41;1.13;;;0.20;;
4305;SDS011;2166;49.926;8.608;2024-03-23T15:38:11;3.50;;;0.60;;
4305;SDS011;2166;49.926;8.608;2024-03-23T15:40:39;1.58;;;0.60;;
4305;SDS011;2166;49.926;8.608;2024-03-23T15:43:06;4.75;;;0.30;;
4305;SDS011;2166;49.926;8.608;2024-03-23T15:45:32;1.23;;;0.30;;
4305;SDS011;2166;49.926;8.608;2024-03-23T15:48:00;1.20;;;0.40;;
4305;SDS011;2166;49.926;8.608;2024-03-23T15:50:26;1.90;;;0.40;;
4305;SDS011;2166;49.926;8.608;2024-03-23T15:52:53;2.28;;;0.80;;
4305;SDS011;2166;49.926;8.608;2024-03-23T15:55:21;0.40;;;0.30;;
4305;SDS011;2166;49.926;8.608;2024-03-23T15:57:53;0.38;;;0.30;;
4305;SDS011;2166;49.926;8.608;2024-03-23T16:00:20;0.98;;;0.57;;
4305;SDS011;2166;49.926;8.608;2024-03-23T16:02:48;0.55;;;0.40;;
4305;SDS011;2166;49.926;8.608;2024-03-23T16:05:14;0.52;;;0.20;;
4305;SDS011;2166;49.926;8.608;2024-03-23T16:07:42;0.47;;;0.45;;